Time;durP1;ratioP1;P1;durP2;ratioP2;P2;SDS_P1;SDS_P2;PMS_P1;PMS_P2;Temp;Humidity;BMP_temperature;BMP_pressure;BME280_temperature;BME280_humidity;BME280_pressure;Samples;Min_cycle;Max_cycle;Signal;HPM_P1;HPM_P2
2023/06/14 00:01:06;;;;;;;6.05;3.80;;;;;;;16.77;55.26;96839.69;5022184;28;20435;-78
2023/06/14 00:03:32;;;;;;;7.47;3.33;;;;;;;16.74;56.37;96844.84;5023029;28;20488;-78
2023/06/14 00:06:00;;;;;;;7.13;3.50;;;;;;;16.72;56.58;96842.47;5022740;28;20524;-78
2023/06/14 00:08:26;;;;;;;4.80;3.22;;;;;;;16.73;56.82;96837.94;5023351;28;20420;-78
2023/06/14 00:10:53;;;;;;;6.10;3.70;;;;;;;16.73;56.57;96840.59;5021799;28;20459;-78
2023/06/14 00:13:20;;;;;;;5.05;3.92;;;;;;;16.67;56.97;96836.47;5023173;28;20451;-78
2023/06/14 00:15:47;;;;;;;6.72;3.70;;;;;;;16.64;56.46;96843.19;5022081;28;20425;-78
2023/06/14 00:18:14;;;;;;;5.22;3.50;;;;;;;16.66;56.17;96832.22;5021357;28;20420;-78
2023/06/14 00:20:41;;;;;;;4.57;3.50;;;;;;;16.61;56.06;96836.56;5022215;28;20400;-78
2023/06/14 00:23:09;;;;;;;5.70;3.40;;;;;;;16.53;57.37;96839.97;5022909;28;20407;-78
2023/06/14 00:25:35;;;;;;;5.75;3.63;;;;;;;16.53;57.01;96839.16;5022166;28;20515;-78
2023/06/14 00:28:01;;;;;;;4.57;3.53;;;;;;;16.48;57.29;96839.25;5022369;28;20420;-78
2023/06/14 00:30:30;;;;;;;6.15;3.30;;;;;;;16.44;57.33;96844.44;5023462;28;20424;-78
2023/06/14 00:32:57;;;;;;;6.35;3.97;;;;;;;16.48;56.29;96845.41;5022858;28;20409;-79
2023/06/14 00:35:23;;;;;;;6.45;3.67;;;;;;;16.39;57.20;96843.75;5023209;28;20413;-78
2023/06/14 00:37:49;;;;;;;5.93;3.78;;;;;;;16.39;56.16;96841.09;5024280;28;20405;-78
2023/06/14 00:40:17;;;;;;;5.28;3.65;;;;;;;16.28;56.76;96843.19;5022974;28;20516;-78
2023/06/14 00:42:46;;;;;;;5.32;3.75;;;;;;;16.19;57.06;96848.44;5022651;28;20404;-78
2023/06/14 00:45:13;;;;;;;5.63;3.42;;;;;;;16.13;57.93;96841.63;5018560;28;20408;-78
2023/06/14 00:47:42;;;;;;;5.68;4.00;;;;;;;16.25;55.93;96844.56;5023525;28;20404;-78
2023/06/14 00:50:10;;;;;;;5.15;3.50;;;;;;;16.17;57.06;96847.94;5026316;28;20439;-79
2023/06/14 00:52:39;;;;;;;5.88;3.90;;;;;;;16.09;57.63;96843.31;5029727;28;20927;-78
2023/06/14 00:55:06;;;;;;;5.22;3.70;;;;;;;16.06;57.96;96838.59;5028814;28;20427;-79
2023/06/14 00:57:37;;;;;;;5.23;3.50;;;;;;;15.98;58.93;96836.63;5028943;28;20492;-79
2023/06/14 01:00:08;;;;;;;8.02;3.88;;;;;;;16.07;58.03;96839.38;5029454;28;20396;-78
2023/06/14 01:02:37;;;;;;;7.70;4.10;;;;;;;16.09;56.56;96837.97;5029366;28;20411;-78
2023/06/14 01:05:05;;;;;;;4.82;3.70;;;;;;;15.96;58.15;96833.44;5029543;28;20400;-79
2023/06/14 01:07:42;;;;;;;6.28;4.00;;;;;;;15.89;59.44;96833.06;5029182;28;20427;-78
2023/06/14 01:10:21;;;;;;;6.97;4.55;;;;;;;15.87;59.66;96836.00;5028974;28;20452;-79
2023/06/14 01:12:58;;;;;;;5.57;3.65;;;;;;;15.88;59.66;96832.25;5029229;28;20409;-79
2023/06/14 01:15:24;;;;;;;6.60;4.20;;;;;;;15.99;57.99;96838.19;5028448;28;20416;-79
2023/06/14 01:18:02;;;;;;;5.88;3.75;;;;;;;15.94;58.12;96840.94;5028788;28;20464;-78
2023/06/14 01:20:30;;;;;;;5.60;4.00;;;;;;;15.91;58.43;96840.78;5029166;28;20401;-79
2023/06/14 01:23:01;;;;;;;5.82;3.80;;;;;;;15.84;58.32;96852.66;5028231;28;20407;-79
2023/06/14 01:25:28;;;;;;;6.30;4.13;;;;;;;15.80;57.94;96848.97;5028688;28;20404;-79
2023/06/14 01:27:59;;;;;;;8.68;3.47;;;;;;;15.72;58.59;96848.88;5028434;28;20425;-79
2023/06/14 01:30:26;;;;;;;5.50;3.50;;;;;;;15.67;59.59;96856.97;5028364;28;20428;-79
2023/06/14 01:32:54;;;;;;;5.78;3.92;;;;;;;15.72;58.61;96852.34;5028236;28;20405;-79
2023/06/14 01:35:21;;;;;;;6.97;3.70;;;;;;;15.60;59.53;96846.72;5027469;28;20455;-79
2023/06/14 01:37:48;;;;;;;6.20;3.50;;;;;;;15.59;59.46;96847.00;5026921;28;20412;-78
2023/06/14 01:40:19;;;;;;;6.27;3.67;;;;;;;15.51;60.53;96851.13;5027362;28;20409;-78
2023/06/14 01:42:48;;;;;;;6.78;4.40;;;;;;;15.60;58.35;96853.91;5027314;28;20487;-78
2023/06/14 01:45:15;;;;;;;5.63;3.93;;;;;;;15.44;60.17;96846.16;5028046;28;20512;-78
2023/06/14 01:47:42;;;;;;;7.68;3.85;;;;;;;15.36;61.28;96843.38;5028340;28;20420;-78
2023/06/14 01:50:09;;;;;;;5.32;3.50;;;;;;;15.31;62.16;96843.50;5027466;28;20546;-79
2023/06/14 01:52:36;;;;;;;5.18;3.63;;;;;;;15.30;61.99;96837.38;5027440;28;20433;-79
2023/06/14 01:55:02;;;;;;;6.78;4.20;;;;;;;15.34;61.71;96846.34;5028498;28;20431;-78
2023/06/14 01:57:30;;;;;;;6.03;3.80;;;;;;;15.29;61.81;96848.31;5027554;28;20401;-79
2023/06/14 01:59:56;;;;;;;5.78;3.60;;;;;;;15.26;62.27;96851.59;5027733;28;20428;-78
2023/06/14 02:02:22;;;;;;;4.95;3.50;;;;;;;15.24;62.97;96845.75;5026975;28;20409;-78
2023/06/14 02:04:48;;;;;;;6.40;3.75;;;;;;;15.26;62.34;96848.91;5027954;28;20416;-78
2023/06/14 02:07:15;;;;;;;7.47;3.75;;;;;;;15.27;62.45;96845.16;5027889;28;20412;-78
2023/06/14 02:09:41;;;;;;;5.70;3.85;;;;;;;15.22;61.97;96839.91;5027748;28;20452;-79
2023/06/14 02:12:08;;;;;;;6.35;3.67;;;;;;;15.17;62.28;96840.00;5027419;28;20699;-78
2023/06/14 02:14:36;;;;;;;6.70;4.35;;;;;;;15.18;61.95;96846.94;5027515;28;20413;-79
2023/06/14 02:17:02;;;;;;;6.10;4.00;;;;;;;15.11;61.68;96853.41;5027964;28;20420;-78
2023/06/14 02:19:28;;;;;;;6.20;3.80;;;;;;;15.03;62.54;96850.66;5027138;28;20408;-78
2023/06/14 02:21:54;;;;;;;6.32;4.15;;;;;;;15.00;63.14;96852.00;5026854;28;20409;-79
2023/06/14 02:24:21;;;;;;;5.30;3.85;;;;;;;14.95;63.59;96848.66;5026126;28;20941;-78
2023/06/14 02:26:47;;;;;;;6.17;4.00;;;;;;;14.96;63.08;96844.91;5026813;28;20405;-79
2023/06/14 02:29:14;;;;;;;6.25;3.72;;;;;;;14.90;63.79;96846.84;5025850;28;20401;-78
2023/06/14 02:31:42;;;;;;;6.25;3.83;;;;;;;14.90;63.36;96846.03;5025368;28;20404;-79
2023/06/14 02:34:08;;;;;;;8.93;4.20;;;;;;;14.92;62.75;96852.69;5023232;28;20412;-78
2023/06/14 02:36:35;;;;;;;5.40;3.85;;;;;;;14.81;63.68;96850.47;5022304;28;20870;-79
2023/06/14 02:39:01;;;;;;;5.82;4.05;;;;;;;14.71;64.60;96852.22;5027825;28;20436;-78
2023/06/14 02:41:27;;;;;;;6.70;3.60;;;;;;;14.69;65.14;96851.69;5028253;28;20420;-78
2023/06/14 02:43:54;;;;;;;7.47;3.45;;;;;;;14.67;65.64;96848.53;5023097;28;20411;-79
2023/06/14 02:46:20;;;;;;;4.38;3.40;;;;;;;14.67;66.24;96845.88;5015531;28;20894;-78
2023/06/14 02:48:47;;;;;;;6.28;3.90;;;;;;;14.71;65.56;96851.41;5015739;28;20405;-78
2023/06/14 02:51:14;;;;;;;7.00;4.45;;;;;;;14.73;64.77;96851.94;5015523;28;20449;-78
2023/06/14 02:53:40;;;;;;;5.72;3.78;;;;;;;14.66;65.37;96840.81;5015060;28;20405;-77
2023/06/14 02:56:06;;;;;;;7.25;3.80;;;;;;;14.67;65.24;96850.41;5015544;28;20419;-78
2023/06/14 02:58:33;;;;;;;6.40;4.00;;;;;;;14.66;64.95;96844.28;5015750;28;20431;-78
2023/06/14 03:01:03;;;;;;;5.15;3.65;;;;;;;14.58;65.91;96844.16;5016233;28;20411;-78
2023/06/14 03:03:29;;;;;;;7.40;4.00;;;;;;;14.54;66.70;96845.81;5015881;28;20437;-78
2023/06/14 03:05:57;;;;;;;5.40;3.80;;;;;;;14.52;66.59;96855.94;5015804;28;20408;-77
2023/06/14 03:08:26;;;;;;;6.00;3.83;;;;;;;14.52;66.42;96847.97;5017949;28;20432;-79
2023/06/14 03:10:53;;;;;;;5.03;3.78;;;;;;;14.53;66.11;96852.22;5026371;28;20413;-78
2023/06/14 03:13:21;;;;;;;6.07;4.07;;;;;;;14.47;66.30;96856.84;5025716;28;20420;-78
2023/06/14 03:15:50;;;;;;;5.40;3.85;;;;;;;14.42;66.46;96853.47;5025980;28;20446;-78
2023/06/14 03:18:16;;;;;;;5.83;3.57;;;;;;;14.34;67.64;96847.66;5026600;28;20400;-78
2023/06/14 03:20:45;;;;;;;5.60;3.73;;;;;;;14.33;67.95;96856.72;5025094;28;20413;-78
2023/06/14 03:23:12;;;;;;;7.10;4.20;;;;;;;14.34;67.35;96855.66;5024319;28;20405;-78
2023/06/14 03:25:41;;;;;;;6.68;4.18;;;;;;;14.32;66.63;96855.16;5023875;28;20408;-78
2023/06/14 03:28:08;;;;;;;7.22;4.30;;;;;;;14.34;66.50;96866.31;5024217;28;20409;-78
2023/06/14 03:30:34;;;;;;;6.20;4.25;;;;;;;14.26;66.87;96866.94;5025058;28;20443;-79
2023/06/14 03:33:03;;;;;;;8.30;4.70;;;;;;;14.27;66.74;96870.41;5024063;28;20416;-78
2023/06/14 03:35:29;;;;;;;6.55;3.88;;;;;;;14.23;67.40;96869.38;5024153;28;20421;-78
2023/06/14 03:37:55;;;;;;;5.60;3.90;;;;;;;14.20;68.02;96876.09;5024487;28;20449;-78
2023/06/14 03:40:26;;;;;;;6.45;4.47;;;;;;;14.26;67.33;96877.59;5024048;28;20887;-78
2023/06/14 03:42:52;;;;;;;6.45;4.20;;;;;;;14.26;66.65;96874.94;5024336;28;20829;-78
2023/06/14 03:45:18;;;;;;;8.73;4.20;;;;;;;14.19;67.36;96881.69;5023235;28;20417;-78
2023/06/14 03:47:45;;;;;;;14.55;4.57;;;;;;;14.21;67.08;96885.63;5022927;28;20417;-78
2023/06/14 03:50:12;;;;;;;5.60;4.35;;;;;;;14.13;67.63;96891.63;5021963;28;20480;-78
2023/06/14 03:52:42;;;;;;;6.80;3.90;;;;;;;14.11;68.14;96896.44;5021283;28;20416;-78
2023/06/14 03:55:09;;;;;;;7.88;4.00;;;;;;;14.14;68.61;96893.19;5015797;28;20986;-78
2023/06/14 03:57:36;;;;;;;6.72;4.43;;;;;;;14.12;69.24;96898.00;5014621;28;20400;-79
2023/06/14 04:00:05;;;;;;;7.78;3.95;;;;;;;14.12;69.76;96900.69;5014379;28;20417;-78
2023/06/14 04:02:32;;;;;;;6.50;4.20;;;;;;;14.15;70.07;96897.44;5014440;28;20463;-78
2023/06/14 04:04:58;;;;;;;6.00;4.13;;;;;;;14.17;69.84;96897.16;5014943;28;20404;-78
2023/06/14 04:07:24;;;;;;;6.93;3.92;;;;;;;14.16;70.41;96904.34;5014612;28;20404;-78
2023/06/14 04:09:51;;;;;;;7.45;4.20;;;;;;;14.19;71.05;96908.31;5015239;28;20408;-78
2023/06/14 04:12:17;;;;;;;6.32;4.00;;;;;;;14.21;71.79;96911.47;5013944;28;20496;-78
2023/06/14 04:14:44;;;;;;;4.78;3.97;;;;;;;14.26;71.38;96908.75;5014388;28;20756;-78
2023/06/14 04:17:11;;;;;;;7.10;4.28;;;;;;;14.28;71.94;96918.00;5014098;28;20428;-78
2023/06/14 04:19:37;;;;;;;6.20;4.15;;;;;;;14.32;72.39;96918.25;5018230;28;20496;-78
2023/06/14 04:22:04;;;;;;;5.90;3.95;;;;;;;14.37;72.89;96923.50;5022007;28;20404;-78
2023/06/14 04:24:31;;;;;;;7.10;4.68;;;;;;;14.45;71.99;96919.44;5022114;28;20408;-78
2023/06/14 04:26:59;;;;;;;5.85;4.05;;;;;;;14.44;73.07;96918.66;5022957;28;20413;-78
2023/06/14 04:29:26;;;;;;;6.68;4.22;;;;;;;14.47;73.25;96928.75;5027038;28;20416;-79
2023/06/14 04:31:58;;;;;;;4.75;3.78;;;;;;;14.51;74.14;96915.66;5015270;28;20432;-77
2023/06/14 04:34:29;;;;;;;5.30;4.00;;;;;;;14.57;74.40;96922.50;5024588;28;20784;-76
2023/06/14 04:36:56;;;;;;;4.78;3.75;;;;;;;14.60;74.84;96924.56;5030167;28;20514;-76
2023/06/14 04:39:22;;;;;;;6.60;4.40;;;;;;;14.65;75.71;96924.50;5030419;28;20418;-76
2023/06/14 04:41:52;;;;;;;6.22;4.35;;;;;;;14.69;75.90;96920.97;5030032;28;20426;-76
2023/06/14 04:44:19;;;;;;;9.82;4.20;;;;;;;14.77;76.69;96922.19;5019204;28;20767;-76
2023/06/14 04:46:46;;;;;;;7.78;4.63;;;;;;;14.82;76.67;96919.44;5012348;28;20405;-76
2023/06/14 04:49:17;;;;;;;9.98;4.50;;;;;;;14.90;77.17;96926.00;5010985;28;20514;-76
2023/06/14 04:51:45;;;;;;;6.72;4.60;;;;;;;14.97;77.20;96916.56;5010798;28;20411;-75
2023/06/14 04:54:15;;;;;;;8.07;4.70;;;;;;;15.04;77.58;96929.50;5012292;28;20411;-77
2023/06/14 04:56:42;;;;;;;5.87;4.10;;;;;;;15.13;77.92;96940.31;5017482;28;20417;-77
2023/06/14 04:59:08;;;;;;;5.50;3.80;;;;;;;15.20;79.15;96944.19;5017108;28;20403;-77
2023/06/14 05:01:35;;;;;;;7.03;4.53;;;;;;;15.30;80.35;96953.91;5010854;28;20491;-74
2023/06/14 05:04:02;;;;;;;6.00;4.38;;;;;;;15.42;81.61;96951.56;5011318;28;20467;-77
2023/06/14 05:06:30;;;;;;;6.05;4.25;;;;;;;15.52;82.05;96953.28;5011555;28;20870;-77
2023/06/14 05:08:56;;;;;;;7.97;4.28;;;;;;;15.61;82.33;96954.22;5011941;28;20405;-77
2023/06/14 05:11:26;;;;;;;5.35;3.58;;;;;;;15.71;82.72;96964.72;5011553;28;20543;-76
2023/06/14 05:13:53;;;;;;;5.38;4.03;;;;;;;15.81;82.84;96959.97;5010679;28;20920;-76
2023/06/14 05:16:20;;;;;;;5.93;3.60;;;;;;;15.91;82.88;96958.22;5010032;28;20427;-76
2023/06/14 05:18:47;;;;;;;4.47;3.40;;;;;;;16.00;83.00;96954.56;5009972;28;20409;-76
2023/06/14 05:21:17;;;;;;;4.60;3.63;;;;;;;16.11;82.73;96960.50;5010367;28;20412;-76
2023/06/14 05:23:44;;;;;;;4.38;3.35;;;;;;;16.19;82.37;96965.94;5010032;28;20972;-76
2023/06/14 05:26:11;;;;;;;5.57;3.38;;;;;;;16.26;82.01;96966.34;5009685;28;20413;-76
2023/06/14 05:28:37;;;;;;;4.22;3.15;;;;;;;16.35;81.58;96965.63;5010005;28;20408;-76
2023/06/14 05:31:03;;;;;;;3.83;2.90;;;;;;;16.43;81.20;96964.94;5010241;28;20488;-76
2023/06/14 05:33:29;;;;;;;3.67;3.00;;;;;;;16.49;80.40;96963.75;5012106;28;20414;-77
2023/06/14 05:35:56;;;;;;;4.72;3.30;;;;;;;16.55;79.71;96966.00;5012331;28;20503;-77
2023/06/14 05:38:22;;;;;;;7.10;3.80;;;;;;;16.62;78.37;96960.28;5015318;28;20467;-77
2023/06/14 05:40:50;;;;;;;7.85;4.18;;;;;;;16.67;76.81;96972.75;5016284;28;20502;-77
2023/06/14 05:43:16;;;;;;;6.70;4.13;;;;;;;16.70;75.98;96966.81;5016284;28;20400;-77
2023/06/14 05:45:42;;;;;;;4.40;3.35;;;;;;;16.73;75.81;96969.69;5018293;28;20407;-78
2023/06/14 05:48:08;;;;;;;6.15;4.07;;;;;;;16.76;75.23;96977.13;5017092;28;20420;-77
2023/06/14 05:50:35;;;;;;;5.15;3.55;;;;;;;16.77;74.57;96967.97;5014659;28;20764;-77
2023/06/14 05:53:01;;;;;;;4.80;3.55;;;;;;;16.81;74.80;96968.19;5025624;28;20494;-77
2023/06/14 05:55:27;;;;;;;5.83;3.80;;;;;;;16.83;73.97;96971.34;5028453;28;20473;-78
2023/06/14 05:57:54;;;;;;;4.50;3.38;;;;;;;16.85;74.08;96969.16;5019581;28;20412;-77
2023/06/14 06:00:21;;;;;;;5.47;3.70;;;;;;;16.89;74.18;96967.47;5019634;28;20412;-77
2023/06/14 06:02:48;;;;;;;5.15;3.75;;;;;;;16.92;74.14;96969.53;5019376;28;20503;-77
2023/06/14 06:05:15;;;;;;;6.00;3.40;;;;;;;16.93;73.67;96966.56;5019106;28;20404;-78
2023/06/14 06:07:42;;;;;;;3.92;3.25;;;;;;;16.94;73.32;96968.13;5019355;28;20810;-78
2023/06/14 06:10:09;;;;;;;5.10;3.25;;;;;;;16.96;73.42;96975.88;5018080;28;20401;-77
2023/06/14 06:12:35;;;;;;;5.57;3.30;;;;;;;16.99;73.52;96972.56;5015385;28;20416;-77
2023/06/14 06:15:03;;;;;;;4.82;3.40;;;;;;;17.02;73.56;96974.66;5016157;28;20892;-78
2023/06/14 06:17:30;;;;;;;4.22;3.10;;;;;;;17.06;73.71;96974.84;5024631;28;20406;-74
2023/06/14 06:19:56;;;;;;;4.22;3.13;;;;;;;17.11;73.61;96978.19;5030738;28;20485;-74
2023/06/14 06:22:25;;;;;;;4.35;3.17;;;;;;;17.15;73.17;96973.81;5029705;28;20407;-75
2023/06/14 06:24:51;;;;;;;4.53;3.00;;;;;;;17.20;72.80;96984.41;5023341;28;20414;-74
2023/06/14 06:27:18;;;;;;;5.22;3.47;;;;;;;17.23;72.38;96981.09;5021546;28;20861;-74
2023/06/14 06:29:45;;;;;;;5.28;3.38;;;;;;;17.29;72.11;96981.81;5020816;28;20409;-74
2023/06/14 06:32:12;;;;;;;4.57;3.40;;;;;;;17.35;71.76;96976.03;5022925;28;20766;-74
2023/06/14 06:34:38;;;;;;;5.57;3.88;;;;;;;17.42;71.32;96986.28;5023318;28;20848;-74
2023/06/14 06:37:05;;;;;;;4.70;3.28;;;;;;;17.48;71.00;96989.63;5022403;28;20682;-74
2023/06/14 06:39:32;;;;;;;3.83;3.13;;;;;;;17.53;70.84;96989.50;5023101;28;20484;-74
2023/06/14 06:41:58;;;;;;;3.92;3.20;;;;;;;17.57;70.72;96993.16;5024343;28;20901;-75
2023/06/14 06:44:24;;;;;;;4.45;3.13;;;;;;;17.60;70.72;96990.66;5023401;28;20400;-76
2023/06/14 06:46:50;;;;;;;6.88;3.78;;;;;;;17.65;68.79;96984.44;5012171;28;20540;-74
2023/06/14 06:49:18;;;;;;;4.95;3.50;;;;;;;17.68;68.34;96997.97;5026789;28;20411;-73
2023/06/14 06:51:58;;;;;;;6.15;3.30;;;;;;;17.72;68.89;96993.59;5032229;28;20412;-76
2023/06/14 06:54:25;;;;;;;5.20;3.50;;;;;;;17.77;68.84;97000.72;5026157;28;20409;-75
2023/06/14 06:56:51;;;;;;;5.38;3.30;;;;;;;17.82;69.25;97000.56;5020983;28;20415;-74
2023/06/14 06:59:17;;;;;;;3.67;2.70;;;;;;;17.87;69.44;97013.84;5022551;28;20896;-75
2023/06/14 07:01:43;;;;;;;4.07;2.95;;;;;;;17.89;69.50;97006.31;5023138;28;20430;-75
2023/06/14 07:04:10;;;;;;;5.20;3.40;;;;;;;17.91;69.22;97017.47;5012069;28;20409;-73
2023/06/14 07:06:37;;;;;;;4.75;3.33;;;;;;;17.94;69.15;97022.25;5011750;28;20405;-73
2023/06/14 07:09:07;;;;;;;4.95;3.50;;;;;;;17.97;69.37;97020.81;5011899;28;20409;-75
2023/06/14 07:11:34;;;;;;;7.95;4.13;;;;;;;18.00;68.11;97023.69;5011588;28;20404;-74
2023/06/14 07:14:00;;;;;;;9.13;3.93;;;;;;;18.03;68.33;97027.66;5014192;28;20407;-73
2023/06/14 07:16:26;;;;;;;5.55;3.72;;;;;;;18.06;68.74;97022.44;5011430;28;20760;-75
2023/06/14 07:18:52;;;;;;;6.32;3.28;;;;;;;18.10;69.27;97026.09;5011765;28;20408;-74
2023/06/14 07:21:19;;;;;;;5.95;3.58;;;;;;;18.14;68.16;97031.63;5011603;28;20416;-74
2023/06/14 07:23:46;;;;;;;5.80;3.38;;;;;;;18.19;68.46;97020.78;5013544;28;20404;-74
2023/06/14 07:26:13;;;;;;;7.25;4.70;;;;;;;18.23;66.10;97020.94;5031163;28;20856;-74
2023/06/14 07:28:39;;;;;;;6.13;4.05;;;;;;;18.24;66.83;97034.03;5031277;28;20418;-74
2023/06/14 07:31:05;;;;;;;7.35;3.80;;;;;;;18.29;66.97;97038.47;5031175;28;20411;-75
2023/06/14 07:33:31;;;;;;;5.50;3.53;;;;;;;18.35;66.94;97047.94;5030630;28;20427;-74
2023/06/14 07:35:57;;;;;;;7.95;4.70;;;;;;;18.36;65.41;97038.81;5030783;28;20426;-74
2023/06/14 07:38:24;;;;;;;6.35;4.10;;;;;;;18.42;65.93;97045.59;5031303;28;20754;-76
2023/06/14 07:40:51;;;;;;;10.32;4.00;;;;;;;18.43;65.79;97045.31;5030599;28;20407;-74
2023/06/14 07:43:17;;;;;;;12.60;3.95;;;;;;;18.49;66.02;97048.66;5030948;28;20414;-75
2023/06/14 07:45:44;;;;;;;6.37;4.40;;;;;;;18.55;65.49;97047.41;5029577;28;20899;-74
2023/06/14 07:48:10;;;;;;;11.02;4.00;;;;;;;18.57;64.37;97041.78;5021444;28;20400;-75
2023/06/14 07:50:36;;;;;;;6.85;3.90;;;;;;;18.62;64.77;97052.34;5021201;28;20412;-74
2023/06/14 07:53:02;;;;;;;5.38;3.45;;;;;;;18.68;65.45;97059.16;5019417;28;20396;-75
2023/06/14 07:55:28;;;;;;;4.10;2.90;;;;;;;18.71;65.61;97047.81;5015579;28;20420;-75
2023/06/14 07:57:56;;;;;;;9.45;3.50;;;;;;;18.76;65.46;97042.28;5010920;28;20412;-74
2023/06/14 08:00:22;;;;;;;24.70;5.30;;;;;;;18.81;64.87;97048.31;5010588;28;20405;-73
2023/06/14 08:02:48;;;;;;;8.40;3.75;;;;;;;18.91;65.19;97056.06;5010170;28;20412;-74
2023/06/14 08:05:15;;;;;;;5.15;3.10;;;;;;;19.02;65.38;97050.41;5010904;28;20436;-75
2023/06/14 08:07:42;;;;;;;3.67;2.97;;;;;;;19.10;64.73;97050.41;5010734;28;20408;-75
2023/06/14 08:10:09;;;;;;;6.75;4.00;;;;;;;19.18;63.42;97051.50;5010917;28;20407;-74
2023/06/14 08:12:36;;;;;;;5.05;3.05;;;;;;;19.27;63.84;97053.09;5010809;28;20481;-76
2023/06/14 08:15:05;;;;;;;5.22;3.53;;;;;;;19.39;63.60;97060.56;5011274;28;20748;-75
2023/06/14 08:17:31;;;;;;;4.90;2.80;;;;;;;19.47;63.48;97057.09;5020840;28;20464;-75
2023/06/14 08:19:57;;;;;;;4.20;2.97;;;;;;;19.56;63.35;97052.50;5029288;28;20506;-76
2023/06/14 08:22:27;;;;;;;12.82;4.30;;;;;;;19.61;58.70;97056.94;5029600;28;20461;-75
2023/06/14 08:24:54;;;;;;;7.10;3.10;;;;;;;19.69;61.02;97054.25;5030195;28;20502;-75
2023/06/14 08:27:20;;;;;;;5.47;3.20;;;;;;;19.76;61.45;97048.41;5030298;28;20403;-75
2023/06/14 08:29:46;;;;;;;4.23;3.30;;;;;;;19.85;60.75;97054.53;5030089;28;20441;-74
2023/06/14 08:32:14;;;;;;;5.50;3.45;;;;;;;19.95;60.83;97056.09;5030326;28;20796;-75
2023/06/14 08:34:42;;;;;;;5.95;3.67;;;;;;;20.05;60.97;97056.56;5019212;28;20414;-74
2023/06/14 08:37:08;;;;;;;5.37;3.70;;;;;;;20.13;60.46;97054.97;5010636;28;20412;-75
2023/06/14 08:39:35;;;;;;;4.57;3.28;;;;;;;20.26;60.91;97061.25;5010666;28;20910;-75
2023/06/14 08:42:03;;;;;;;6.65;3.28;;;;;;;20.36;60.82;97063.63;5010636;28;20504;-74
2023/06/14 08:44:29;;;;;;;12.02;4.30;;;;;;;20.41;60.53;97061.53;5010582;28;20408;-74
2023/06/14 08:46:59;;;;;;;5.13;3.30;;;;;;;20.53;61.11;97062.75;5010293;28;20409;-75
2023/06/14 08:49:27;;;;;;;8.67;3.93;;;;;;;20.60;59.49;97053.06;5010462;28;20752;-76
2023/06/14 08:51:58;;;;;;;6.53;3.70;;;;;;;20.68;58.26;97057.63;5010445;28;20419;-75
2023/06/14 08:54:27;;;;;;;10.70;3.47;;;;;;;20.78;58.18;97068.03;5010479;28;20404;-74
2023/06/14 08:56:57;;;;;;;4.60;3.40;;;;;;;20.87;58.77;97073.34;5010074;28;20976;-75
2023/06/14 08:59:24;;;;;;;6.18;3.55;;;;;;;20.94;58.89;97070.16;5010670;28;20495;-76
2023/06/14 09:01:52;;;;;;;13.55;4.60;;;;;;;20.99;57.92;97070.75;5010392;28;20432;-75
2023/06/14 09:04:19;;;;;;;6.57;3.90;;;;;;;21.09;57.79;97072.28;5010576;28;20926;-75
2023/06/14 09:06:52;;;;;;;7.85;4.00;;;;;;;21.13;57.70;97062.44;5010276;28;20404;-76
2023/06/14 09:09:19;;;;;;;4.60;3.50;;;;;;;21.20;57.34;97068.13;5010791;28;20480;-75
2023/06/14 09:11:46;;;;;;;6.23;3.30;;;;;;;21.32;57.39;97070.09;5010676;28;20440;-76
2023/06/14 09:14:12;;;;;;;5.57;3.30;;;;;;;21.34;57.26;97065.97;5014103;28;20460;-75
2023/06/14 09:16:38;;;;;;;6.72;3.97;;;;;;;21.41;56.91;97073.53;5013857;28;20900;-75
2023/06/14 09:19:06;;;;;;;4.73;3.27;;;;;;;21.51;57.06;97065.03;5014115;28;20401;-76
2023/06/14 09:21:35;;;;;;;6.70;3.57;;;;;;;21.58;56.96;97065.28;5014006;28;20425;-76
2023/06/14 09:24:06;;;;;;;9.25;4.20;;;;;;;21.63;55.81;97075.88;5013920;28;20406;-75
2023/06/14 09:26:32;;;;;;;9.23;3.78;;;;;;;21.76;56.88;97076.72;5013676;28;20399;-75
2023/06/14 09:28:58;;;;;;;4.17;2.90;;;;;;;21.86;56.79;97071.72;5014177;28;20906;-76
2023/06/14 09:31:26;;;;;;;4.68;3.47;;;;;;;21.93;56.08;97069.28;5013902;28;20727;-75
2023/06/14 09:33:55;;;;;;;6.15;3.67;;;;;;;22.00;56.37;97080.34;5013509;28;20404;-74
2023/06/14 09:36:23;;;;;;;4.63;3.15;;;;;;;22.10;56.33;97075.66;5013510;28;20424;-76
2023/06/14 09:38:54;;;;;;;5.20;3.33;;;;;;;22.15;56.24;97073.53;5013677;28;20495;-76
2023/06/14 09:41:30;;;;;;;4.47;3.10;;;;;;;22.27;56.30;97070.06;5013568;28;20409;-77
2023/06/14 09:44:00;;;;;;;5.40;3.63;;;;;;;22.32;55.58;97075.25;5013484;28;20759;-75
2023/06/14 09:46:27;;;;;;;9.98;4.50;;;;;;;22.32;53.45;97070.66;5013343;28;20393;-74
2023/06/14 09:48:54;;;;;;;6.13;3.80;;;;;;;22.39;54.37;97068.19;5013422;28;20405;-75
2023/06/14 09:51:23;;;;;;;5.55;3.40;;;;;;;22.49;54.19;97068.84;5013387;28;20462;-74
2023/06/14 09:53:50;;;;;;;6.43;3.08;;;;;;;22.60;54.93;97070.00;5013168;28;20806;-76
2023/06/14 09:56:22;;;;;;;6.20;4.05;;;;;;;22.67;53.56;97073.72;5012902;28;21036;-75
2023/06/14 09:58:53;;;;;;;7.85;4.07;;;;;;;22.76;51.07;97076.34;5013614;28;20401;-75
2023/06/14 10:01:21;;;;;;;5.03;3.47;;;;;;;22.85;51.77;97074.31;5013125;28;20799;-76
2023/06/14 10:03:50;;;;;;;6.97;3.95;;;;;;;22.97;52.05;97065.41;5013078;28;20491;-76
2023/06/14 10:06:17;;;;;;;7.00;3.75;;;;;;;23.11;48.27;97063.94;5013412;28;20399;-76
2023/06/14 10:08:44;;;;;;;7.87;3.87;;;;;;;23.15;47.73;97064.81;5013392;28;20459;-77
2023/06/14 10:11:12;;;;;;;8.68;3.53;;;;;;;23.30;48.35;97063.34;5012970;28;20399;-77
2023/06/14 10:13:39;;;;;;;4.07;3.17;;;;;;;23.50;49.69;97070.53;5012785;28;20491;-77
2023/06/14 10:16:13;;;;;;;4.60;3.37;;;;;;;23.78;46.55;97062.44;5012617;28;20419;-76
2023/06/14 10:18:49;;;;;;;7.22;3.50;;;;;;;23.75;47.04;97062.34;5012908;28;20409;-77
2023/06/14 10:21:23;;;;;;;4.85;3.58;;;;;;;23.85;46.78;97064.53;5012820;28;20770;-76
2023/06/14 10:23:51;;;;;;;8.20;4.25;;;;;;;23.85;47.28;97069.94;5012848;28;20408;-78
2023/06/14 10:26:22;;;;;;;6.13;4.00;;;;;;;24.00;45.13;97063.00;5012988;28;20399;-76
2023/06/14 10:28:58;;;;;;;7.97;3.42;;;;;;;24.01;46.80;97062.66;5012794;28;20405;-75
2023/06/14 10:31:41;;;;;;;5.03;3.08;;;;;;;24.04;46.51;97055.78;5012676;28;20442;-76
2023/06/14 10:34:07;;;;;;;6.10;3.50;;;;;;;24.10;46.23;97046.28;5012696;28;20419;-76
2023/06/14 10:36:36;;;;;;;6.95;3.35;;;;;;;24.07;46.60;97055.09;5012523;28;20428;-76
2023/06/14 10:39:06;;;;;;;5.03;3.70;;;;;;;23.82;46.20;97049.81;5013332;28;20413;-78
2023/06/14 10:41:37;;;;;;;5.83;3.50;;;;;;;23.63;46.64;97052.34;5012670;28;20404;-77
2023/06/14 10:44:38;;;;;;;6.18;3.45;;;;;;;23.67;47.82;97057.88;5015961;28;20403;-77
2023/06/14 10:47:08;;;;;;;9.52;3.42;;;;;;;23.93;46.61;97052.78;5022819;28;20495;-77
2023/06/14 10:49:42;;;;;;;14.60;4.45;;;;;;;24.00;43.32;97046.78;5014975;28;20457;-76
2023/06/14 10:52:19;;;;;;;5.75;3.60;;;;;;;24.00;44.25;97058.38;5022418;28;20888;-76
2023/06/14 10:55:17;;;;;;;10.90;3.95;;;;;;;23.82;44.74;97049.03;5023046;28;20491;-76
2023/06/14 10:57:51;;;;;;;7.97;4.05;;;;;;;23.65;45.97;97062.81;5027972;28;20432;-76
2023/06/14 11:00:21;;;;;;;6.72;3.15;;;;;;;23.61;46.93;97053.81;5023127;28;20738;-76
2023/06/14 11:03:24;;;;;;;5.32;3.42;;;;;;;23.64;45.49;97055.84;5021766;28;20399;-76
2023/06/14 11:05:53;;;;;;;5.70;3.50;;;;;;;23.47;45.88;97059.59;5011915;28;20405;-76
2023/06/14 11:08:51;;;;;;;5.20;3.17;;;;;;;23.38;47.33;97057.00;5012119;28;20584;-75
2023/06/14 11:11:20;;;;;;;8.27;3.67;;;;;;;23.17;46.29;97053.69;5012047;28;20500;-75
2023/06/14 11:13:46;;;;;;;11.07;4.30;;;;;;;23.13;45.95;97050.91;5012260;28;20416;-76
2023/06/14 11:16:14;;;;;;;5.80;3.38;;;;;;;23.02;46.28;97048.97;5011956;28;20451;-76
2023/06/14 11:18:40;;;;;;;6.03;3.80;;;;;;;22.92;47.60;97055.66;5012266;28;20580;-75
2023/06/14 11:21:11;;;;;;;5.43;3.33;;;;;;;22.83;47.81;97056.88;5012392;28;20413;-75
2023/06/14 11:23:37;;;;;;;6.38;3.25;;;;;;;22.74;48.48;97057.00;5012293;28;20415;-75
2023/06/14 11:26:06;;;;;;;5.38;3.20;;;;;;;22.75;47.77;97056.66;5012396;28;20759;-76
2023/06/14 11:28:38;;;;;;;5.07;3.08;;;;;;;22.94;46.35;97058.78;5028477;28;20453;-74
2023/06/14 11:31:07;;;;;;;10.00;3.58;;;;;;;23.17;46.04;97056.38;5029463;28;22251;-75
2023/06/14 11:33:33;;;;;;;6.18;3.58;;;;;;;23.44;44.43;97044.84;5031640;28;20469;-76
2023/06/14 11:36:03;;;;;;;9.60;3.53;;;;;;;23.92;42.55;97062.81;5029556;28;20481;-76
2023/06/14 11:38:30;;;;;;;8.52;3.33;;;;;;;24.13;43.97;97051.78;5030885;28;20399;-76